createdAt,value
2023-01-28T00:01:39.161Z,3.49
2023-01-28T00:06:41.109Z,3.49
2023-01-28T00:11:42.963Z,3.50
2023-01-28T00:16:44.849Z,3.50
2023-01-28T00:21:46.697Z,3.48
2023-01-28T00:26:48.943Z,3.47
2023-01-28T00:31:50.927Z,3.42
2023-01-28T00:36:57.502Z,3.39
2023-01-28T00:41:59.415Z,3.31
2023-01-28T00:47:01.327Z,3.28
2023-01-28T00:52:04.126Z,3.27
2023-01-28T00:57:07.181Z,3.23
2023-01-28T01:02:15.314Z,3.15
2023-01-28T01:07:23.047Z,3.09
2023-01-28T01:12:24.890Z,3.03
2023-01-28T01:17:29.726Z,3.02
2023-01-28T01:22:36.654Z,2.97
2023-01-28T01:27:38.558Z,2.90
2023-01-28T01:32:40.447Z,2.86
2023-01-28T01:37:44.682Z,2.88
2023-01-28T01:42:47.227Z,2.89
2023-01-28T01:47:58.170Z,2.93
2023-01-28T01:53:07.582Z,2.91
2023-01-28T01:58:13.581Z,2.92
2023-01-28T02:03:19.803Z,2.92
2023-01-28T02:08:21.689Z,2.94
2023-01-28T02:13:30.436Z,2.96
2023-01-28T02:18:35.370Z,2.94
2023-01-28T02:24:08.459Z,2.92
2023-01-28T02:29:17.116Z,2.87
2023-01-28T02:34:32.075Z,2.85
2023-01-28T02:39:40.818Z,2.83
2023-01-28T02:44:42.651Z,2.86
2023-01-28T02:49:52.104Z,2.88
2023-01-28T02:55:17.811Z,2.85
2023-01-28T03:00:39.173Z,2.86
2023-01-28T03:06:05.341Z,2.87
2023-01-28T03:11:25.814Z,2.90
2023-01-28T03:16:48.417Z,2.90
2023-01-28T03:22:08.897Z,2.92
2023-01-28T03:27:51.943Z,2.96
2023-01-28T03:33:14.980Z,2.93
2023-01-28T03:38:20.881Z,2.91
2023-01-28T03:43:24.221Z,2.87
2023-01-28T03:48:28.403Z,2.83
2023-01-28T03:53:31.549Z,2.81
2023-01-28T03:58:52.085Z,2.83
2023-01-28T04:03:54.284Z,2.81
2023-01-28T04:09:06.071Z,2.81
2023-01-28T04:14:31.419Z,2.80
2023-01-28T04:20:15.767Z,2.74
2023-01-28T04:25:18.039Z,2.66
2023-01-28T04:30:21.305Z,2.61
2023-01-28T04:35:39.974Z,2.57
2023-01-28T04:41:02.218Z,2.49
2023-01-28T04:46:08.423Z,2.43
2023-01-28T04:51:22.971Z,2.33
2023-01-28T04:56:51.043Z,2.26
2023-01-28T05:01:54.221Z,2.21
2023-01-28T05:06:56.892Z,2.15
2023-01-28T05:12:03.452Z,2.12
2023-01-28T05:17:06.985Z,2.03
2023-01-28T05:22:09.162Z,1.95
2023-01-28T05:27:16.759Z,1.87
2023-01-28T05:32:18.765Z,1.76
2023-01-28T05:37:20.955Z,1.66
2023-01-28T05:42:25.375Z,1.56
2023-01-28T05:47:45.530Z,1.55
2023-01-28T05:53:13.158Z,1.47
2023-01-28T05:58:18.421Z,1.42
2023-01-28T06:03:20.326Z,1.44
2023-01-28T06:08:22.324Z,1.43
2023-01-28T06:13:24.500Z,1.37
2023-01-28T06:19:02.037Z,1.40
2023-01-28T06:24:04.755Z,1.31
2023-01-28T06:29:06.673Z,1.31
2023-01-28T06:34:09.984Z,1.33
2023-01-28T06:39:12.285Z,1.33
2023-01-28T06:44:14.105Z,1.33
2023-01-28T06:49:15.977Z,1.33
2023-01-28T06:54:17.818Z,1.33
2023-01-28T06:59:19.624Z,1.38
2023-01-28T07:04:21.446Z,1.35
2023-01-28T07:09:23.434Z,1.29
2023-01-28T07:14:25.278Z,1.21
2023-01-28T07:19:27.094Z,1.14
2023-01-28T07:24:29.889Z,0.96
2023-01-28T07:29:31.755Z,0.93
2023-01-28T07:34:34.027Z,0.87
2023-01-28T07:39:35.899Z,0.93
2023-01-28T07:44:39.333Z,0.97
2023-01-28T07:49:41.241Z,0.96
2023-01-28T07:54:43.122Z,0.97
2023-01-28T07:59:44.924Z,0.93
2023-01-28T08:04:47.103Z,0.92
2023-01-28T08:09:48.954Z,0.88
2023-01-28T08:14:50.759Z,0.87
2023-01-28T08:19:52.646Z,0.85
2023-01-28T08:24:54.476Z,0.88
2023-01-28T08:29:56.317Z,0.93
2023-01-28T08:34:58.216Z,0.98
2023-01-28T08:40:00.138Z,1.00
2023-01-28T08:45:01.968Z,1.04
2023-01-28T08:50:04.068Z,1.09
2023-01-28T08:55:06.327Z,1.14
2023-01-28T09:00:10.883Z,1.22
2023-01-28T09:05:13.084Z,1.25
2023-01-28T09:10:16.761Z,1.29
2023-01-28T09:15:18.847Z,1.34
2023-01-28T09:20:20.679Z,1.38
2023-01-28T09:25:22.530Z,1.46
2023-01-28T09:30:24.934Z,1.53
2023-01-28T09:35:27.098Z,1.60
2023-01-28T09:40:34.874Z,1.62
2023-01-28T09:45:47.224Z,1.63
2023-01-28T09:50:51.803Z,1.61
2023-01-28T09:56:07.353Z,1.65
2023-01-28T10:01:33.613Z,1.70
2023-01-28T10:06:41.084Z,1.67
2023-01-28T10:11:49.642Z,1.66
2023-01-28T10:17:26.645Z,1.62
2023-01-28T10:22:46.023Z,1.57
2023-01-28T10:27:50.114Z,1.49
2023-01-28T10:33:27.305Z,1.43
2023-01-28T10:38:31.160Z,1.52
2023-01-28T10:43:36.137Z,1.53
2023-01-28T10:48:46.258Z,1.50
2023-01-28T10:53:48.136Z,1.49
2023-01-28T10:58:59.954Z,1.51
2023-01-28T11:04:01.829Z,1.47
2023-01-28T11:09:03.773Z,1.50
2023-01-28T11:14:05.774Z,1.56
2023-01-28T11:19:07.733Z,1.55
2023-01-28T11:24:18.131Z,1.56
2023-01-28T11:29:31.982Z,1.57
2023-01-28T11:34:35.298Z,1.58
2023-01-28T11:39:37.145Z,1.60
2023-01-28T11:44:40.324Z,1.58
2023-01-28T11:50:00.146Z,1.55
2023-01-28T11:55:17.601Z,1.47
2023-01-28T12:00:38.444Z,1.47
2023-01-28T12:05:42.866Z,1.41
2023-01-28T12:10:53.297Z,1.36
2023-01-28T12:16:10.277Z,1.38
2023-01-28T12:21:32.763Z,1.40
2023-01-28T12:26:35.755Z,1.44
2023-01-28T12:32:06.778Z,1.46
2023-01-28T12:38:00.159Z,1.41
2023-01-28T12:43:10.769Z,1.40
2023-01-28T12:48:27.263Z,1.43
2023-01-28T12:53:40.964Z,1.47
2023-01-28T12:58:42.724Z,1.45
2023-01-28T13:03:58.288Z,1.42
2023-01-28T13:09:03.569Z,1.43
2023-01-28T13:14:06.326Z,1.42
2023-01-28T13:19:23.122Z,1.42
2023-01-28T13:24:32.168Z,1.44
2023-01-28T13:29:34.808Z,1.49
2023-01-28T13:34:40.763Z,1.51
2023-01-28T13:39:48.785Z,1.51
2023-01-28T13:44:51.269Z,1.55
2023-01-28T13:50:00.180Z,1.60
2023-01-28T13:55:29.390Z,1.58
2023-01-28T14:01:06.061Z,1.57
2023-01-28T14:06:36.773Z,1.60
2023-01-28T14:12:12.573Z,1.59
2023-01-28T14:17:35.708Z,1.65
2023-01-28T14:22:37.571Z,1.59
2023-01-28T14:27:44.354Z,1.64
2023-01-28T14:32:51.805Z,1.63
2023-01-28T14:37:54.895Z,1.66
2023-01-28T14:42:58.298Z,1.67
2023-01-28T14:48:12.214Z,1.66
2023-01-28T14:53:32.794Z,1.60
2023-01-28T14:58:44.445Z,1.58
2023-01-28T15:03:46.571Z,1.53
2023-01-28T15:08:48.925Z,1.45
2023-01-28T15:13:58.074Z,1.51
2023-01-28T15:19:01.982Z,1.48
2023-01-28T15:24:04.978Z,1.47
2023-01-28T15:29:06.837Z,1.44
2023-01-28T15:34:16.869Z,1.45
2023-01-28T15:39:21.840Z,1.49
2023-01-28T15:44:45.031Z,1.56
2023-01-28T15:49:50.476Z,1.63
2023-01-28T15:54:52.688Z,1.70
2023-01-28T16:00:25.248Z,1.65
2023-01-28T16:05:31.177Z,1.61
2023-01-28T16:10:33.415Z,1.62
2023-01-28T16:15:38.453Z,1.62
2023-01-28T16:20:44.645Z,1.64
2023-01-28T16:25:46.545Z,1.59
2023-01-28T16:30:48.430Z,1.54
2023-01-28T16:36:06.569Z,1.51
2023-01-28T16:41:16.146Z,1.48
2023-01-28T16:46:18.090Z,1.45
2023-01-28T16:51:20.940Z,1.36
2023-01-28T17:01:48.138Z,1.18
2023-01-28T17:06:50.377Z,1.27
2023-01-28T17:11:52.772Z,1.23
2023-01-28T17:16:54.618Z,1.06
2023-01-28T17:21:58.088Z,1.19
2023-01-28T17:27:00.115Z,1.30
2023-01-28T17:32:02.328Z,1.27
2023-01-28T17:37:04.294Z,1.31
2023-01-28T17:42:06.287Z,1.31
2023-01-28T17:47:08.196Z,1.35
2023-01-28T17:52:10.053Z,1.21
2023-01-28T17:57:11.836Z,1.25
2023-01-28T18:02:14.270Z,1.25
2023-01-28T18:07:16.713Z,1.31
2023-01-28T18:12:18.990Z,1.37
2023-01-28T18:17:26.778Z,1.35
2023-01-28T18:22:28.681Z,1.14
2023-01-28T18:27:30.530Z,1.10
2023-01-28T18:32:32.575Z,1.20
2023-01-28T18:37:34.394Z,1.29
2023-01-28T18:42:37.674Z,1.36
2023-01-28T18:47:39.541Z,1.22
2023-01-28T18:52:41.644Z,1.12
2023-01-28T18:57:43.535Z,1.22
2023-01-28T19:02:46.662Z,1.21
2023-01-28T19:07:48.653Z,1.14
2023-01-28T19:12:50.914Z,1.15
2023-01-28T19:17:53.486Z,1.13
2023-01-28T19:22:55.593Z,1.06
2023-01-28T19:27:57.650Z,1.03
2023-01-28T19:33:01.079Z,1.09
2023-01-28T19:38:03.741Z,1.12
2023-01-28T19:43:05.579Z,1.06
2023-01-28T19:48:07.401Z,0.87
2023-01-28T19:53:09.715Z,0.80
2023-01-28T19:58:14.934Z,0.90
2023-01-28T20:03:17.052Z,1.01
2023-01-28T20:08:18.872Z,1.05
2023-01-28T20:13:20.871Z,1.00
2023-01-28T20:18:23.197Z,0.99
2023-01-28T20:23:25.039Z,0.97
2023-01-28T20:28:27.940Z,1.08
2023-01-28T20:33:29.757Z,1.10
2023-01-28T20:38:36.108Z,0.99
2023-01-28T20:43:39.610Z,0.99
2023-01-28T20:48:42.000Z,0.94
2023-01-28T20:53:51.107Z,0.98
2023-01-28T20:58:58.220Z,1.08
2023-01-28T21:04:00.200Z,1.13
2023-01-28T21:09:03.068Z,1.18
2023-01-28T21:14:04.938Z,0.91
2023-01-28T21:19:06.733Z,0.65
2023-01-28T21:24:09.073Z,0.74
2023-01-28T21:29:10.976Z,0.79
2023-01-28T21:34:14.545Z,0.88
2023-01-28T21:39:16.433Z,0.89
2023-01-28T21:44:18.546Z,0.95
2023-01-28T21:49:20.415Z,0.90
2023-01-28T21:54:22.246Z,0.78
2023-01-28T21:59:30.614Z,0.72
2023-01-28T22:04:35.160Z,0.69
2023-01-28T22:09:37.945Z,0.60
2023-01-28T22:14:39.835Z,0.66
2023-01-28T22:19:47.898Z,0.68
2023-01-28T22:24:49.719Z,0.61
2023-01-28T22:29:52.030Z,0.64
2023-01-28T22:34:53.840Z,0.65
2023-01-28T22:39:56.282Z,0.72
2023-01-28T22:44:58.321Z,0.85
2023-01-28T22:50:00.152Z,0.82
2023-01-28T22:55:02.170Z,0.70
2023-01-28T23:00:08.570Z,0.67
2023-01-28T23:05:10.899Z,0.57
2023-01-28T23:10:12.918Z,0.49
2023-01-28T23:15:33.387Z,0.48
2023-01-28T23:20:54.046Z,0.51
2023-01-28T23:25:55.848Z,0.48
2023-01-28T23:30:57.721Z,0.48
2023-01-28T23:35:59.642Z,0.38
2023-01-28T23:41:02.330Z,0.39
2023-01-28T23:46:04.475Z,0.39
2023-01-28T23:51:09.386Z,0.33
2023-01-28T23:56:11.531Z,0.41
